Time;durP1;ratioP1;P1;durP2;ratioP2;P2;SDS_P1;SDS_P2;PMS_P1;PMS_P2;Temp;Humidity;BMP_temperature;BMP_pressure;BME280_temperature;BME280_humidity;BME280_pressure;Samples;Min_cycle;Max_cycle;Signal;HPM_P1;HPM_P2
2022/01/03 00:01:34;;;;;;;2.83;1.02;;;;;;;;;;4956630;28;20143;-63
2022/01/03 00:04:01;;;;;;;6.18;1.15;;;;;;;;;;4951624;28;20082;-62
2022/01/03 00:06:27;;;;;;;4.85;1.33;;;;;;;;;;4950579;28;20121;-62
2022/01/03 00:08:55;;;;;;;4.63;1.20;;;;;;;;;;4949316;28;20070;-62
2022/01/03 00:11:22;;;;;;;4.03;1.20;;;;;;;;;;4950518;28;20063;-63
2022/01/03 00:13:50;;;;;;;2.28;0.93;;;;;;;;;;4947110;28;20056;-62
2022/01/03 00:16:18;;;;;;;5.53;1.30;;;;;;;;;;4952088;28;20141;-63
2022/01/03 00:18:45;;;;;;;6.03;2.67;;;;;;;;;;4949437;28;20149;-62
2022/01/03 00:21:13;;;;;;;5.47;1.58;;;;;;;;;;4948472;28;20134;-63
2022/01/03 00:23:43;;;;;;;2.50;1.05;;;;;;;;;;4948217;28;20131;-62
2022/01/03 00:26:10;;;;;;;2.75;1.10;;;;;;;;;;4947798;28;20236;-63
2022/01/03 00:28:40;;;;;;;2.08;1.00;;;;;;;;;;4952914;28;20146;-63
2022/01/03 00:31:07;;;;;;;3.85;1.20;;;;;;;;;;4950875;28;20138;-63
2022/01/03 00:33:35;;;;;;;6.43;1.90;;;;;;;;;;4959648;28;20136;-63
2022/01/03 00:36:03;;;;;;;4.40;1.48;;;;;;;;;;4960401;28;20177;-62
2022/01/03 00:38:31;;;;;;;4.75;1.55;;;;;;;;;;4962644;28;20066;-63
2022/01/03 00:40:59;;;;;;;4.07;1.10;;;;;;;;;;4956867;28;20063;-62
2022/01/03 00:43:27;;;;;;;2.65;1.00;;;;;;;;;;4956179;28;20169;-62
2022/01/03 00:45:54;;;;;;;6.13;1.40;;;;;;;;;;4957522;28;21374;-62
2022/01/03 00:48:20;;;;;;;2.40;1.13;;;;;;;;;;4961185;28;20113;-62
2022/01/03 00:50:49;;;;;;;3.50;1.30;;;;;;;;;;4962003;28;20130;-62
2022/01/03 00:53:16;;;;;;;3.70;1.52;;;;;;;;;;4960854;28;20134;-62
2022/01/03 00:55:56;;;;;;;3.38;1.05;;;;;;;;;;4961698;28;20145;-63
2022/01/03 00:58:24;;;;;;;3.78;1.13;;;;;;;;;;4961491;28;20126;-62
2022/01/03 01:00:52;;;;;;;5.78;1.25;;;;;;;;;;4961428;28;20134;-62
2022/01/03 01:03:21;;;;;;;4.95;1.60;;;;;;;;;;4963491;28;20143;-62
2022/01/03 01:05:51;;;;;;;4.88;1.48;;;;;;;;;;4958642;28;20054;-62
2022/01/03 01:08:20;;;;;;;3.10;1.30;;;;;;;;;;4958601;28;20071;-62
2022/01/03 01:10:50;;;;;;;3.28;1.38;;;;;;;;;;4958664;28;20062;-62
2022/01/03 01:13:17;;;;;;;5.35;1.40;;;;;;;;;;4963664;28;20067;-62
2022/01/03 01:15:44;;;;;;;4.22;1.50;;;;;;;;;;4960772;28;20107;-62
2022/01/03 01:18:11;;;;;;;2.50;1.00;;;;;;;;;;4955724;28;20534;-63
2022/01/03 01:20:39;;;;;;;5.18;1.10;;;;;;;;;;4958090;28;20090;-62
2022/01/03 01:23:09;;;;;;;5.30;1.25;;;;;;;;;;4962794;28;20049;-62
2022/01/03 01:28:20;;;;;;;4.55;1.58;;;;;;;;;;4961029;28;20058;-63
2022/01/03 01:30:47;;;;;;;3.55;0.95;;;;;;;;;;4964270;28;20043;-63
2022/01/03 01:33:15;;;;;;;3.50;1.23;;;;;;;;;;4963824;28;20078;-63
2022/01/03 01:35:46;;;;;;;4.82;1.13;;;;;;;;;;4958478;28;20086;-63
2022/01/03 01:38:16;;;;;;;3.47;1.10;;;;;;;;;;4961866;28;20039;-62
2022/01/03 01:40:57;;;;;;;3.85;1.33;;;;;;;;;;4961065;28;20081;-62
2022/01/03 01:43:31;;;;;;;2.63;1.10;;;;;;;;;;4959593;28;20602;-62
2022/01/03 01:46:00;;;;;;;4.65;1.10;;;;;;;;;;4965193;28;20070;-62
2022/01/03 01:48:27;;;;;;;2.08;0.90;;;;;;;;;;4969204;28;20043;-62
2022/01/03 01:50:55;;;;;;;4.80;1.60;;;;;;;;;;4962858;28;20098;-62
2022/01/03 01:53:26;;;;;;;1.52;0.80;;;;;;;;;;4965502;28;20047;-61
2022/01/03 01:55:56;;;;;;;2.47;1.00;;;;;;;;;;4953557;28;20804;-61
2022/01/03 01:58:29;;;;;;;5.75;1.20;;;;;;;;;;4963656;28;20526;-61
2022/01/03 02:01:01;;;;;;;4.63;1.13;;;;;;;;;;4959039;28;20098;-62
2022/01/03 02:03:59;;;;;;;5.28;0.95;;;;;;;;;;5171963;23;20087;-61
2022/01/03 02:06:38;;;;;;;5.43;0.85;;;;;;;;;;4928651;29;20083;-62
2022/01/03 02:09:08;;;;;;;3.80;1.27;;;;;;;;;;4927755;29;20111;-62
2022/01/03 02:11:46;;;;;;;3.50;1.08;;;;;;;;;;4932384;29;20585;-62
2022/01/03 02:14:12;;;;;;;4.00;1.20;;;;;;;;;;4929200;29;20139;-62
2022/01/03 02:16:39;;;;;;;3.88;0.98;;;;;;;;;;4927377;29;20048;-62
2022/01/03 02:19:05;;;;;;;4.43;1.17;;;;;;;;;;4924317;29;20123;-61
2022/01/03 02:21:33;;;;;;;3.05;0.80;;;;;;;;;;4928235;29;20075;-61
2022/01/03 02:24:00;;;;;;;7.82;0.85;;;;;;;;;;4928006;29;20515;-61
2022/01/03 02:26:29;;;;;;;3.47;1.55;;;;;;;;;;4929482;29;20138;-62
2022/01/03 02:28:55;;;;;;;4.20;1.13;;;;;;;;;;4928220;29;20075;-61
2022/01/03 02:58:48;;;;;;;;;;;;;;;;;;;;;
2022/01/03 03:04:37;;;;;;;5.80;1.00;;;;;;;;;;4793458;29;20082;-93
2022/01/03 03:07:28;;;;;;;4.03;1.25;;;;;;;;;;4890598;29;20492;-91
2022/01/03 03:09:56;;;;;;;5.05;1.77;;;;;;;;;;4893972;29;20059;-92
2022/01/03 03:12:23;;;;;;;2.97;0.80;;;;;;;;;;4892727;29;20096;-91
2022/01/03 03:14:52;;;;;;;3.60;0.90;;;;;;;;;;4888552;29;20055;-92
2022/01/03 03:17:25;;;;;;;9.02;1.30;;;;;;;;;;4889445;29;20149;-90
2022/01/03 03:19:54;;;;;;;2.05;0.80;;;;;;;;;;4893245;29;20407;-92
2022/01/03 03:22:21;;;;;;;6.70;0.95;;;;;;;;;;4902498;29;20096;-92
2022/01/03 03:24:48;;;;;;;5.10;1.05;;;;;;;;;;4891826;29;20049;-91
2022/01/03 03:27:15;;;;;;;2.38;0.80;;;;;;;;;;4894057;29;20117;-91
2022/01/03 03:29:46;;;;;;;3.38;0.80;;;;;;;;;;4894901;28;20416;-91
2022/01/03 03:32:15;;;;;;;4.65;1.10;;;;;;;;;;4963655;28;20051;-91
2022/01/03 03:34:42;;;;;;;3.33;0.85;;;;;;;;;;4961588;28;20055;-91
2022/01/03 03:37:09;;;;;;;5.28;1.25;;;;;;;;;;4964691;28;20101;-91
2022/01/03 03:39:36;;;;;;;4.07;1.00;;;;;;;;;;4972239;28;20125;-92
2022/01/03 03:42:04;;;;;;;4.55;1.08;;;;;;;;;;4965226;28;20133;-91
2022/01/03 03:44:31;;;;;;;2.42;0.60;;;;;;;;;;4964794;28;20095;-91
2022/01/03 03:46:57;;;;;;;5.80;1.25;;;;;;;;;;4964741;28;20080;-91
2022/01/03 03:49:25;;;;;;;5.13;1.17;;;;;;;;;;4966523;28;20054;-91
2022/01/03 03:51:52;;;;;;;2.35;0.75;;;;;;;;;;4961998;28;20421;-90
2022/01/03 03:54:19;;;;;;;5.80;1.48;;;;;;;;;;4966520;28;20058;-91
2022/01/03 03:56:45;;;;;;;4.28;1.02;;;;;;;;;;4965271;28;20099;-91
2022/01/03 03:59:13;;;;;;;8.27;1.20;;;;;;;;;;4967051;28;20098;-90
2022/01/03 04:01:39;;;;;;;3.92;1.20;;;;;;;;;;4959506;28;20054;-91
2022/01/03 04:04:06;;;;;;;3.97;0.95;;;;;;;;;;4962807;28;20050;-91
2022/01/03 04:06:34;;;;;;;5.00;1.13;;;;;;;;;;4961645;28;20055;-91
2022/01/03 04:09:01;;;;;;;4.10;0.80;;;;;;;;;;4959894;28;20055;-91
2022/01/03 04:11:28;;;;;;;6.40;1.73;;;;;;;;;;4971636;28;20447;-92
2022/01/03 04:13:54;;;;;;;7.82;1.58;;;;;;;;;;4965119;28;20043;-92
2022/01/03 04:16:21;;;;;;;4.68;1.20;;;;;;;;;;4962763;28;20105;-91
2022/01/03 04:18:48;;;;;;;6.47;1.52;;;;;;;;;;4967334;28;20051;-92
2022/01/03 04:21:14;;;;;;;4.57;1.63;;;;;;;;;;4967090;28;20043;-92
2022/01/03 04:23:43;;;;;;;5.20;1.20;;;;;;;;;;4958336;28;20486;-91
2022/01/03 04:26:11;;;;;;;2.97;1.10;;;;;;;;;;4963323;28;20098;-91
2022/01/03 04:28:38;;;;;;;2.88;1.00;;;;;;;;;;4966788;28;20086;-92
2022/01/03 04:31:05;;;;;;;3.47;1.25;;;;;;;;;;4964097;28;20126;-92
2022/01/03 04:33:31;;;;;;;6.75;0.95;;;;;;;;;;4961538;28;20055;-92
2022/01/03 04:35:59;;;;;;;3.92;1.40;;;;;;;;;;4972878;28;20536;-93
2022/01/03 04:38:26;;;;;;;3.38;1.35;;;;;;;;;;4968345;28;20417;-92
2022/01/03 04:40:54;;;;;;;3.97;1.10;;;;;;;;;;4966634;28;20114;-91
2022/01/03 04:43:21;;;;;;;4.40;1.23;;;;;;;;;;4965423;28;20082;-92
2022/01/03 04:45:49;;;;;;;4.20;1.40;;;;;;;;;;4958893;28;20042;-91
2022/01/03 04:48:16;;;;;;;6.25;1.30;;;;;;;;;;4972500;28;20047;-91
2022/01/03 04:50:42;;;;;;;3.13;1.10;;;;;;;;;;4957327;28;20047;-92
2022/01/03 04:53:09;;;;;;;4.68;1.30;;;;;;;;;;4966738;28;20050;-92
2022/01/03 04:55:37;;;;;;;2.60;1.08;;;;;;;;;;4958253;28;20059;-91
2022/01/03 04:58:05;;;;;;;5.18;1.60;;;;;;;;;;4944504;28;20045;-91
2022/01/03 05:00:32;;;;;;;9.52;3.22;;;;;;;;;;4957088;28;20065;-91
2022/01/03 05:02:59;;;;;;;6.80;2.08;;;;;;;;;;4965803;28;20054;-91
2022/01/03 05:05:25;;;;;;;7.80;1.65;;;;;;;;;;4966697;28;20483;-92
2022/01/03 05:07:52;;;;;;;7.38;1.60;;;;;;;;;;4965119;28;20478;-91
2022/01/03 05:10:19;;;;;;;3.63;1.25;;;;;;;;;;4959666;28;20054;-91
2022/01/03 05:12:46;;;;;;;4.43;1.40;;;;;;;;;;4963290;28;20197;-91
2022/01/03 05:15:14;;;;;;;5.38;1.10;;;;;;;;;;4962274;28;20484;-91
2022/01/03 05:17:40;;;;;;;4.25;1.42;;;;;;;;;;4960977;28;20047;-91
2022/01/03 05:20:08;;;;;;;3.53;1.30;;;;;;;;;;4960188;28;20048;-91
2022/01/03 05:22:34;;;;;;;4.85;1.02;;;;;;;;;;4971088;28;20109;-91
2022/01/03 05:25:01;;;;;;;5.55;1.30;;;;;;;;;;4965429;28;20078;-92
2022/01/03 05:27:28;;;;;;;7.03;2.00;;;;;;;;;;4964492;28;20058;-91
2022/01/03 05:29:55;;;;;;;3.00;1.02;;;;;;;;;;4970408;28;20101;-91
2022/01/03 05:32:23;;;;;;;5.97;2.50;;;;;;;;;;4967722;28;20039;-92
2022/01/03 05:34:50;;;;;;;3.10;1.10;;;;;;;;;;4962051;28;20054;-92
2022/01/03 05:37:17;;;;;;;4.85;1.33;;;;;;;;;;4966427;28;20093;-92
2022/01/03 05:39:43;;;;;;;2.03;1.00;;;;;;;;;;4960741;28;20054;-92
2022/01/03 05:42:10;;;;;;;4.40;1.23;;;;;;;;;;4964861;28;20051;-91
2022/01/03 05:44:37;;;;;;;3.67;0.98;;;;;;;;;;4960650;28;20498;-92
2022/01/03 05:47:04;;;;;;;3.03;1.23;;;;;;;;;;4959091;28;20098;-92
2022/01/03 05:49:33;;;;;;;3.85;1.00;;;;;;;;;;4962138;28;20118;-92
2022/01/03 05:52:00;;;;;;;9.02;1.73;;;;;;;;;;4960449;28;20047;-92
2022/01/03 05:54:27;;;;;;;3.83;1.02;;;;;;;;;;4958450;28;20111;-92
2022/01/03 05:56:54;;;;;;;4.68;0.88;;;;;;;;;;4957590;28;20070;-92
2022/01/03 05:59:21;;;;;;;8.70;1.38;;;;;;;;;;4965191;28;20094;-93
2022/01/03 06:01:48;;;;;;;4.78;1.33;;;;;;;;;;4954855;28;20057;-91
2022/01/03 06:04:21;;;;;;;2.83;1.33;;;;;;;;;;4965238;28;20054;-93
2022/01/03 06:06:54;;;;;;;3.20;1.02;;;;;;;;;;4956509;28;20118;-91
2022/01/03 06:09:27;;;;;;;5.55;1.27;;;;;;;;;;4960574;28;20504;-93
2022/01/03 06:11:58;;;;;;;4.05;1.35;;;;;;;;;;4960326;28;20486;-92
2022/01/03 06:14:25;;;;;;;9.68;1.90;;;;;;;;;;4966120;28;20685;-92
2022/01/03 06:16:52;;;;;;;4.53;1.05;;;;;;;;;;4961131;28;20070;-92
2022/01/03 06:19:20;;;;;;;4.72;1.92;;;;;;;;;;4958037;28;20058;-92
2022/01/03 06:21:46;;;;;;;4.75;1.38;;;;;;;;;;4960176;28;20421;-92
2022/01/03 06:24:17;;;;;;;4.85;1.30;;;;;;;;;;4962463;28;20054;-92
2022/01/03 06:26:45;;;;;;;9.82;1.63;;;;;;;;;;4971225;28;20055;-92
2022/01/03 06:29:13;;;;;;;5.03;1.23;;;;;;;;;;4964085;28;20057;-91
2022/01/03 06:31:40;;;;;;;3.05;1.02;;;;;;;;;;4958409;28;20063;-91
2022/01/03 06:34:07;;;;;;;3.95;1.23;;;;;;;;;;4960239;28;20042;-91
2022/01/03 06:36:34;;;;;;;6.10;1.13;;;;;;;;;;4964446;28;20062;-91
2022/01/03 06:39:01;;;;;;;7.22;1.50;;;;;;;;;;4969662;28;20062;-91
2022/01/03 06:41:29;;;;;;;3.97;1.50;;;;;;;;;;4974798;28;20066;-91
2022/01/03 06:43:56;;;;;;;5.82;1.10;;;;;;;;;;4965074;28;20421;-91
2022/01/03 06:46:22;;;;;;;7.07;1.05;;;;;;;;;;4969715;28;20070;-92
2022/01/03 06:48:49;;;;;;;5.65;1.23;;;;;;;;;;4968396;28;20051;-91
2022/01/03 06:51:16;;;;;;;2.33;1.35;;;;;;;;;;4959272;28;20047;-91
2022/01/03 06:53:43;;;;;;;7.05;1.17;;;;;;;;;;4971107;28;20051;-91
2022/01/03 06:56:10;;;;;;;3.22;0.82;;;;;;;;;;4969860;28;20043;-91
2022/01/03 06:58:38;;;;;;;5.05;0.85;;;;;;;;;;4966680;28;20054;-92
2022/01/03 07:01:05;;;;;;;5.38;1.00;;;;;;;;;;4963707;28;20465;-91
2022/01/03 07:03:32;;;;;;;5.05;1.40;;;;;;;;;;4965115;28;20130;-91
2022/01/03 07:05:59;;;;;;;6.38;1.48;;;;;;;;;;4957550;28;20066;-92
2022/01/03 07:08:25;;;;;;;5.35;1.13;;;;;;;;;;4968186;28;20051;-91
2022/01/03 07:10:52;;;;;;;5.45;1.50;;;;;;;;;;4972171;28;20058;-91
2022/01/03 07:13:19;;;;;;;3.83;1.33;;;;;;;;;;4971262;28;20129;-91
2022/01/03 07:21:15;;;;;;;5.75;1.50;;;;;;;;;;4971243;28;20058;-91
2022/01/03 07:23:41;;;;;;;4.38;1.02;;;;;;;;;;4963556;28;20043;-90
2022/01/03 07:26:08;;;;;;;6.60;1.50;;;;;;;;;;4959257;28;20099;-91
2022/01/03 07:28:35;;;;;;;6.10;1.38;;;;;;;;;;4965218;28;20055;-91
2022/01/03 07:31:04;;;;;;;4.40;1.38;;;;;;;;;;4962297;28;20047;-91
2022/01/03 07:33:30;;;;;;;7.72;1.80;;;;;;;;;;4960166;28;20457;-91
2022/01/03 07:35:57;;;;;;;6.68;2.05;;;;;;;;;;4957608;28;20047;-91
2022/01/03 07:38:24;;;;;;;5.05;1.08;;;;;;;;;;4961455;28;20489;-91
2022/01/03 07:40:51;;;;;;;4.00;1.30;;;;;;;;;;4966833;28;20051;-91
2022/01/03 07:43:19;;;;;;;7.00;1.40;;;;;;;;;;4972947;28;20046;-91
2022/01/03 07:45:46;;;;;;;4.95;1.48;;;;;;;;;;4966911;28;20121;-91
2022/01/03 07:48:37;;;;;;;6.47;1.92;;;;;;;;;;4969821;28;20051;-92
2022/01/03 07:51:08;;;;;;;6.80;1.52;;;;;;;;;;4958383;28;20047;-91
2022/01/03 07:53:46;;;;;;;7.35;1.85;;;;;;;;;;4958130;28;20445;-92
2022/01/03 07:56:18;;;;;;;3.35;1.13;;;;;;;;;;4972806;28;20477;-91
2022/01/03 07:58:46;;;;;;;6.07;1.48;;;;;;;;;;4958271;28;20051;-91
2022/01/03 08:01:13;;;;;;;4.45;1.35;;;;;;;;;;4965184;28;20043;-91
2022/01/03 08:03:42;;;;;;;4.30;1.20;;;;;;;;;;4956794;28;20070;-91
2022/01/03 08:06:10;;;;;;;5.55;1.02;;;;;;;;;;4959760;28;20472;-91
2022/01/03 08:08:40;;;;;;;4.80;1.25;;;;;;;;;;4967845;28;20106;-91
2022/01/03 08:11:07;;;;;;;3.38;1.05;;;;;;;;;;4967980;28;20105;-90
2022/01/03 08:13:34;;;;;;;6.25;1.98;;;;;;;;;;4960145;28;20054;-91
2022/01/03 08:16:04;;;;;;;4.82;1.40;;;;;;;;;;4945238;28;20060;-91
2022/01/03 08:18:33;;;;;;;4.57;1.70;;;;;;;;;;4970767;28;20039;-92
2022/01/03 08:21:01;;;;;;;9.07;1.33;;;;;;;;;;4964648;28;20074;-91
2022/01/03 08:23:30;;;;;;;5.53;2.50;;;;;;;;;;4966520;28;20042;-91
2022/01/03 08:25:57;;;;;;;4.63;1.52;;;;;;;;;;4959353;28;20048;-91
2022/01/03 08:28:24;;;;;;;8.38;2.15;;;;;;;;;;4961840;28;20042;-91
2022/01/03 08:30:52;;;;;;;6.22;1.20;;;;;;;;;;4959458;28;20130;-92
2022/01/03 08:33:19;;;;;;;5.95;1.10;;;;;;;;;;4966717;28;20054;-91
2022/01/03 08:35:47;;;;;;;3.40;1.25;;;;;;;;;;4957761;28;20541;-91
2022/01/03 08:38:16;;;;;;;11.23;2.65;;;;;;;;;;4942216;28;20043;-91
2022/01/03 08:40:43;;;;;;;6.25;1.10;;;;;;;;;;4956059;28;20051;-90
2022/01/03 08:43:10;;;;;;;6.65;1.33;;;;;;;;;;4969155;28;20078;-91
2022/01/03 08:45:36;;;;;;;4.55;1.23;;;;;;;;;;4960664;28;20059;-91
2022/01/03 08:48:04;;;;;;;4.28;1.08;;;;;;;;;;4955827;28;20114;-91
2022/01/03 08:50:31;;;;;;;3.83;1.08;;;;;;;;;;4940305;28;20062;-92
2022/01/03 08:52:57;;;;;;;5.25;1.60;;;;;;;;;;4958994;28;20113;-91
2022/01/03 08:55:26;;;;;;;5.47;1.15;;;;;;;;;;4955732;28;20049;-91
2022/01/03 08:57:53;;;;;;;5.22;1.25;;;;;;;;;;4955334;28;20047;-91
2022/01/03 09:00:20;;;;;;;4.47;1.17;;;;;;;;;;4957172;28;20101;-91
2022/01/03 09:02:47;;;;;;;4.10;1.25;;;;;;;;;;4959412;28;20058;-90
2022/01/03 09:05:13;;;;;;;5.95;1.30;;;;;;;;;;4960052;28;20046;-92
2022/01/03 09:07:40;;;;;;;3.53;1.00;;;;;;;;;;4960201;28;20493;-91
2022/01/03 09:10:12;;;;;;;4.32;1.65;;;;;;;;;;4964305;28;20051;-92
2022/01/03 09:12:47;;;;;;;11.80;1.50;;;;;;;;;;4962385;28;20054;-92
2022/01/03 09:15:15;;;;;;;5.60;1.85;;;;;;;;;;4961539;28;20086;-92
2022/01/03 09:17:44;;;;;;;6.47;1.30;;;;;;;;;;4958711;28;20046;-92
2022/01/03 09:20:12;;;;;;;5.38;1.08;;;;;;;;;;4962432;28;20055;-91
2022/01/03 09:22:45;;;;;;;7.20;1.20;;;;;;;;;;4953564;28;20055;-92
2022/01/03 09:31:14;;;;;;;4.20;1.30;;;;;;;;;;4950102;28;20188;-92
2022/01/03 09:33:50;;;;;;;4.50;1.45;;;;;;;;;;4964468;28;20113;-92
2022/01/03 09:37:01;;;;;;;7.45;1.33;;;;;;;;;;4958297;28;20671;-93
2022/01/03 09:39:30;;;;;;;3.03;1.13;;;;;;;;;;4904933;29;20044;-91
2022/01/03 09:42:03;;;;;;;7.90;1.40;;;;;;;;;;4898745;29;20084;-91
2022/01/03 09:44:33;;;;;;;9.90;2.13;;;;;;;;;;4900125;29;20045;-91
2022/01/03 09:47:02;;;;;;;5.25;1.30;;;;;;;;;;4893826;29;20132;-91
2022/01/03 09:49:33;;;;;;;6.30;1.30;;;;;;;;;;4888621;29;20052;-92
2022/01/03 09:52:04;;;;;;;6.60;1.15;;;;;;;;;;4903939;29;20075;-92
2022/01/03 09:54:32;;;;;;;5.50;1.00;;;;;;;;;;4904549;29;20063;-91
2022/01/03 09:57:01;;;;;;;2.33;1.00;;;;;;;;;;4908082;29;20084;-92
2022/01/03 09:59:33;;;;;;;5.18;1.38;;;;;;;;;;4900475;29;20085;-92
2022/01/03 10:02:01;;;;;;;4.22;1.65;;;;;;;;;;4909285;29;20048;-91
2022/01/03 10:07:46;;;;;;;6.03;1.90;;;;;;;;;;4911330;29;20059;-91
2022/01/03 10:10:14;;;;;;;7.10;1.45;;;;;;;;;;4929156;28;20714;-91
2022/01/03 10:12:43;;;;;;;5.45;1.30;;;;;;;;;;4966309;28;20109;-92
2022/01/03 10:15:13;;;;;;;5.07;1.80;;;;;;;;;;4964795;28;20133;-91
2022/01/03 10:20:29;;;;;;;5.53;1.45;;;;;;;;;;4966352;28;20150;-91
2022/01/03 10:23:10;;;;;;;9.20;1.77;;;;;;;;;;4966531;28;20109;-91
2022/01/03 10:25:41;;;;;;;2.83;1.42;;;;;;;;;;4972725;28;20078;-91
2022/01/03 10:28:14;;;;;;;6.15;1.83;;;;;;;;;;4981277;28;20100;-91
2022/01/03 10:30:47;;;;;;;10.02;2.45;;;;;;;;;;4951404;28;20055;-91
2022/01/03 10:33:17;;;;;;;4.80;1.55;;;;;;;;;;4930503;28;20390;-91
2022/01/03 10:35:46;;;;;;;5.18;1.70;;;;;;;;;;4964261;28;20046;-92
2022/01/03 10:38:32;;;;;;;7.20;1.90;;;;;;;;;;4969499;28;20039;-92
2022/01/03 10:41:12;;;;;;;7.17;2.20;;;;;;;;;;4960947;28;20120;-92
2022/01/03 10:43:39;;;;;;;6.25;1.60;;;;;;;;;;4961275;28;20672;-92
2022/01/03 10:46:20;;;;;;;5.68;1.70;;;;;;;;;;4959796;28;20114;-93
2022/01/03 10:48:49;;;;;;;8.10;1.40;;;;;;;;;;4968905;28;20078;-92
2022/01/03 10:57:56;;;;;;;6.25;1.77;;;;;;;;;;4972020;23;20079;-63
2022/01/03 11:00:26;;;;;;;5.90;1.60;;;;;;;;;;4958690;28;20109;-63
2022/01/03 11:03:28;;;;;;;6.35;2.08;;;;;;;;;;4952697;28;20066;-63
2022/01/03 11:05:59;;;;;;;5.47;1.13;;;;;;;;;;4960000;28;20130;-63
2022/01/03 11:11:12;;;;;;;6.35;1.38;;;;;;;;;;4959234;28;20045;-63
2022/01/03 11:13:43;;;;;;;9.88;1.73;;;;;;;;;;4953392;28;20051;-64
2022/01/03 11:16:10;;;;;;;6.22;1.13;;;;;;;;;;4954119;28;20047;-64
2022/01/03 11:18:39;;;;;;;3.08;1.13;;;;;;;;;;4958025;28;20071;-63
2022/01/03 11:21:13;;;;;;;5.35;1.60;;;;;;;;;;4956221;28;20125;-63
2022/01/03 11:23:41;;;;;;;8.70;1.88;;;;;;;;;;4954007;28;20978;-63
2022/01/03 11:26:09;;;;;;;2.35;1.00;;;;;;;;;;4959268;28;20062;-63
2022/01/03 11:28:36;;;;;;;6.45;1.00;;;;;;;;;;4958906;28;20055;-63
2022/01/03 11:31:03;;;;;;;3.33;1.10;;;;;;;;;;4957735;28;20130;-63
2022/01/03 11:33:30;;;;;;;5.30;0.75;;;;;;;;;;4956538;28;20162;-65
2022/01/03 11:36:01;;;;;;;6.80;1.25;;;;;;;;;;4955441;28;20138;-63
2022/01/03 11:38:30;;;;;;;3.50;1.23;;;;;;;;;;4958909;28;20156;-63
2022/01/03 11:41:00;;;;;;;3.10;1.13;;;;;;;;;;4958624;28;20054;-63
2022/01/03 11:43:28;;;;;;;3.65;0.90;;;;;;;;;;4953459;28;20078;-63
2022/01/03 11:45:56;;;;;;;6.50;1.23;;;;;;;;;;4954750;28;20062;-63
2022/01/03 11:48:24;;;;;;;6.35;1.00;;;;;;;;;;4955834;28;20149;-63
2022/01/03 11:50:55;;;;;;;7.22;2.13;;;;;;;;;;4956363;28;20086;-63
2022/01/03 11:53:24;;;;;;;4.90;1.27;;;;;;;;;;4937526;28;20062;-63
2022/01/03 11:55:54;;;;;;;4.20;1.17;;;;;;;;;;4958142;28;20144;-63
2022/01/03 11:58:56;;;;;;;4.57;1.17;;;;;;;;;;4959146;28;20086;-63
2022/01/03 12:04:12;;;;;;;5.82;1.27;;;;;;;;;;4953663;28;20117;-63
2022/01/03 12:06:38;;;;;;;5.97;1.55;;;;;;;;;;4960087;28;20182;-62
2022/01/03 12:09:08;;;;;;;6.28;1.42;;;;;;;;;;4958152;28;20471;-63
2022/01/03 12:11:43;;;;;;;3.65;1.50;;;;;;;;;;4957929;28;20422;-63
2022/01/03 12:14:11;;;;;;;4.88;1.45;;;;;;;;;;4957040;28;20057;-63
2022/01/03 12:16:52;;;;;;;3.67;1.48;;;;;;;;;;4957622;28;20058;-63
2022/01/03 12:19:30;;;;;;;8.80;1.38;;;;;;;;;;4956748;28;20126;-64
2022/01/03 12:21:59;;;;;;;6.55;1.15;;;;;;;;;;4957126;28;20123;-63
2022/01/03 12:24:46;;;;;;;4.40;0.90;;;;;;;;;;4953839;28;20117;-63
2022/01/03 12:27:36;;;;;;;4.00;1.13;;;;;;;;;;4959187;28;20066;-63
2022/01/03 12:30:14;;;;;;;7.22;1.25;;;;;;;;;;4944531;28;20054;-62
2022/01/03 12:32:43;;;;;;;5.68;1.65;;;;;;;;;;4960965;28;20137;-63
2022/01/03 12:35:20;;;;;;;4.47;1.75;;;;;;;;;;4957239;28;20398;-63
2022/01/03 12:37:48;;;;;;;4.75;1.33;;;;;;;;;;4956442;28;20055;-63
2022/01/03 12:40:18;;;;;;;6.88;1.50;;;;;;;;;;4957206;28;20125;-63
2022/01/03 12:42:56;;;;;;;5.68;2.40;;;;;;;;;;4950122;28;20161;-64
2022/01/03 12:45:51;;;;;;;11.18;2.28;;;;;;;;;;4955187;28;20751;-63
2022/01/03 12:48:19;;;;;;;5.93;1.38;;;;;;;;;;4956083;28;20737;-63
2022/01/03 12:50:47;;;;;;;5.57;1.50;;;;;;;;;;4956310;28;20848;-65
2022/01/03 12:53:41;;;;;;;4.97;1.20;;;;;;;;;;4956706;28;20146;-64
2022/01/03 12:56:11;;;;;;;4.15;1.08;;;;;;;;;;4955689;28;20051;-61
2022/01/03 12:58:40;;;;;;;2.65;1.27;;;;;;;;;;4954894;28;20466;-63
2022/01/03 13:01:10;;;;;;;5.30;1.98;;;;;;;;;;4948015;28;20177;-63
2022/01/03 13:03:49;;;;;;;6.13;1.33;;;;;;;;;;4936363;28;20046;-63
2022/01/03 13:06:18;;;;;;;4.50;1.73;;;;;;;;;;4954624;28;20511;-64
2022/01/03 13:09:02;;;;;;;4.18;1.63;;;;;;;;;;4950625;28;20078;-63
2022/01/03 13:11:32;;;;;;;6.35;1.10;;;;;;;;;;4949634;28;20125;-64
2022/01/03 13:14:02;;;;;;;6.78;1.02;;;;;;;;;;4953133;28;20054;-63
2022/01/03 13:16:30;;;;;;;4.00;1.00;;;;;;;;;;4951892;28;20146;-64
2022/01/03 13:18:59;;;;;;;2.10;0.85;;;;;;;;;;4933475;28;20058;-64
2022/01/03 13:21:27;;;;;;;4.25;1.58;;;;;;;;;;4943541;28;20158;-64
2022/01/03 13:23:56;;;;;;;6.88;1.95;;;;;;;;;;4949687;28;20169;-63
2022/01/03 13:26:24;;;;;;;5.85;1.45;;;;;;;;;;4949368;28;20158;-62
2022/01/03 13:28:53;;;;;;;5.30;1.40;;;;;;;;;;4947397;28;20074;-62
2022/01/03 13:31:20;;;;;;;5.28;1.08;;;;;;;;;;4949265;28;20255;-63
2022/01/03 13:33:54;;;;;;;4.60;1.25;;;;;;;;;;4953088;28;20201;-63
2022/01/03 13:36:20;;;;;;;4.63;1.33;;;;;;;;;;4954165;28;20146;-63
2022/01/03 13:38:47;;;;;;;4.75;1.23;;;;;;;;;;4948429;28;20133;-64
2022/01/03 13:41:16;;;;;;;2.60;1.08;;;;;;;;;;4957876;28;20623;-63
2022/01/03 13:43:47;;;;;;;3.58;1.73;;;;;;;;;;4954343;28;20262;-63
2022/01/03 13:49:13;;;;;;;4.57;1.35;;;;;;;;;;4949810;28;20066;-63
2022/01/03 13:51:44;;;;;;;7.72;1.48;;;;;;;;;;4958412;28;20125;-63
2022/01/03 13:54:21;;;;;;;5.95;1.20;;;;;;;;;;4949121;28;20150;-63
2022/01/03 13:56:48;;;;;;;6.55;1.40;;;;;;;;;;4959096;28;20140;-63
2022/01/03 13:59:15;;;;;;;4.97;1.02;;;;;;;;;;4953780;28;20854;-64
2022/01/03 14:01:43;;;;;;;3.67;0.90;;;;;;;;;;4956607;28;20186;-63
2022/01/03 14:04:09;;;;;;;2.85;0.95;;;;;;;;;;4957108;28;20125;-64
2022/01/03 14:06:36;;;;;;;5.45;1.13;;;;;;;;;;4957371;28;20079;-63
2022/01/03 14:09:10;;;;;;;4.30;1.00;;;;;;;;;;4948776;28;20446;-63
2022/01/03 14:11:36;;;;;;;2.92;1.08;;;;;;;;;;4956259;28;20143;-63
2022/01/03 14:14:09;;;;;;;6.72;1.25;;;;;;;;;;4957747;28;20177;-63
2022/01/03 14:16:50;;;;;;;5.25;1.23;;;;;;;;;;4965547;28;20074;-63
2022/01/03 14:19:17;;;;;;;4.55;1.30;;;;;;;;;;4966625;28;20085;-63
2022/01/03 14:21:44;;;;;;;4.85;1.60;;;;;;;;;;4962194;28;20102;-63
2022/01/03 14:24:11;;;;;;;4.15;1.25;;;;;;;;;;4971197;28;20061;-63
2022/01/03 14:26:39;;;;;;;5.43;1.58;;;;;;;;;;4966606;28;20137;-64
2022/01/03 14:29:10;;;;;;;5.65;2.33;;;;;;;;;;4967484;28;20122;-63
2022/01/03 14:31:47;;;;;;;6.45;1.05;;;;;;;;;;4969968;28;20110;-63
2022/01/03 14:34:21;;;;;;;5.15;1.30;;;;;;;;;;4971984;28;20058;-63
2022/01/03 14:36:48;;;;;;;3.85;1.25;;;;;;;;;;4973963;28;20120;-63
2022/01/03 14:39:15;;;;;;;3.83;1.20;;;;;;;;;;4958871;28;21762;-64
2022/01/03 14:41:41;;;;;;;2.35;1.00;;;;;;;;;;4959173;28;20051;-63
2022/01/03 14:44:09;;;;;;;8.35;1.30;;;;;;;;;;4968452;28;20575;-64
2022/01/03 14:46:38;;;;;;;4.72;1.20;;;;;;;;;;4969121;28;20046;-63
2022/01/03 14:49:09;;;;;;;5.53;1.40;;;;;;;;;;4967068;28;20078;-64
2022/01/03 14:51:38;;;;;;;3.25;0.90;;;;;;;;;;4966411;28;20134;-63
2022/01/03 14:54:12;;;;;;;5.28;1.60;;;;;;;;;;4963417;28;20081;-63
2022/01/03 14:56:38;;;;;;;4.00;0.98;;;;;;;;;;4951708;28;20097;-64
2022/01/03 14:59:09;;;;;;;5.13;1.10;;;;;;;;;;4964393;28;20153;-63
2022/01/03 15:01:36;;;;;;;3.85;1.10;;;;;;;;;;4967269;28;20473;-63
2022/01/03 15:04:02;;;;;;;5.10;1.30;;;;;;;;;;4964152;28;20129;-63
2022/01/03 15:06:30;;;;;;;5.53;1.00;;;;;;;;;;4970398;28;20070;-64
2022/01/03 15:08:57;;;;;;;3.35;1.00;;;;;;;;;;4964959;28;21018;-63
2022/01/03 15:11:23;;;;;;;9.18;1.35;;;;;;;;;;4967328;28;20086;-64
2022/01/03 15:13:50;;;;;;;4.07;1.35;;;;;;;;;;4968364;28;20561;-63
2022/01/03 15:16:17;;;;;;;7.75;1.88;;;;;;;;;;4968428;28;20101;-64
2022/01/03 15:18:44;;;;;;;8.48;1.40;;;;;;;;;;4965354;28;20058;-63
2022/01/03 15:21:10;;;;;;;4.70;1.40;;;;;;;;;;4963582;28;20129;-63
2022/01/03 15:23:39;;;;;;;6.07;1.42;;;;;;;;;;4965054;28;20117;-63
2022/01/03 15:26:06;;;;;;;3.85;1.98;;;;;;;;;;4967321;28;20045;-63
2022/01/03 15:28:32;;;;;;;6.57;1.50;;;;;;;;;;4964132;28;20113;-63
2022/01/03 15:31:00;;;;;;;4.78;1.50;;;;;;;;;;4966339;28;20518;-64
2022/01/03 15:33:27;;;;;;;6.63;0.98;;;;;;;;;;4959180;28;20117;-64
2022/01/03 15:35:54;;;;;;;5.15;1.25;;;;;;;;;;4961873;28;20146;-63
2022/01/03 15:38:21;;;;;;;3.13;1.23;;;;;;;;;;4968648;28;20109;-63
2022/01/03 15:40:50;;;;;;;3.97;1.00;;;;;;;;;;4971782;28;20137;-63
2022/01/03 15:43:18;;;;;;;4.15;1.25;;;;;;;;;;4968199;28;20075;-62
2022/01/03 15:45:44;;;;;;;5.18;1.40;;;;;;;;;;4967420;28;20053;-63
2022/01/03 15:48:11;;;;;;;7.40;1.40;;;;;;;;;;4962935;28;20054;-63
2022/01/03 15:50:38;;;;;;;4.18;1.00;;;;;;;;;;4967117;28;20121;-63
2022/01/03 15:53:06;;;;;;;4.53;1.17;;;;;;;;;;4957937;28;20070;-63
2022/01/03 15:55:33;;;;;;;4.53;1.88;;;;;;;;;;4958610;28;20059;-64
2022/01/03 15:58:01;;;;;;;7.13;2.15;;;;;;;;;;4961166;28;20146;-64
2022/01/03 16:00:29;;;;;;;3.65;1.40;;;;;;;;;;4970257;28;20086;-64
2022/01/03 16:02:55;;;;;;;4.22;1.33;;;;;;;;;;4964322;28;20097;-64